Time;durP1;ratioP1;P1;durP2;ratioP2;P2;SDS_P1;SDS_P2;PMS_P1;PMS_P2;Temp;Humidity;BMP_temperature;BMP_pressure;BME280_temperature;BME280_humidity;BME280_pressure;Samples;Min_cycle;Max_cycle;Signal;HPM_P1;HPM_P2
2022/07/27 00:02:15;;;;;;;4.75;3.17;;;;;;;;;;1728132;82;21131;-66
2022/07/27 00:04:41;;;;;;;4.60;3.20;;;;;;;;;;1735082;82;21036;-66
2022/07/27 00:07:07;;;;;;;5.00;3.85;;;;;;;;;;1735374;82;21056;-66
2022/07/27 00:09:34;;;;;;;4.92;3.52;;;;;;;;;;1739741;82;21529;-66
2022/07/27 00:12:01;;;;;;;5.15;3.70;;;;;;;;;;1737770;82;21056;-65
2022/07/27 00:14:27;;;;;;;4.78;3.22;;;;;;;;;;1747085;82;21044;-66
2022/07/27 00:16:54;;;;;;;4.72;3.67;;;;;;;;;;1748154;82;21112;-66
2022/07/27 00:19:22;;;;;;;3.90;3.20;;;;;;;;;;1752410;81;21052;-66
2022/07/27 00:21:49;;;;;;;4.92;3.08;;;;;;;;;;1747684;82;21029;-67
2022/07/27 00:24:16;;;;;;;4.60;3.42;;;;;;;;;;1749377;82;21048;-66
2022/07/27 00:26:42;;;;;;;4.90;3.60;;;;;;;;;;1750195;82;21536;-67
2022/07/27 00:29:09;;;;;;;4.80;3.95;;;;;;;;;;1752806;81;21052;-66
2022/07/27 00:31:35;;;;;;;4.33;3.52;;;;;;;;;;1743680;81;21089;-66
2022/07/27 00:34:01;;;;;;;4.72;3.33;;;;;;;;;;1724304;82;21084;-65
2022/07/27 00:36:27;;;;;;;3.92;3.35;;;;;;;;;;1706487;82;21106;-65
2022/07/27 00:38:53;;;;;;;4.70;3.00;;;;;;;;;;1697347;82;21072;-65
2022/07/27 00:41:20;;;;;;;5.17;3.40;;;;;;;;;;1729795;82;21033;-66
2022/07/27 00:43:53;;;;;;;4.55;3.80;;;;;;;;;;1725616;82;21545;-66
2022/07/27 00:46:19;;;;;;;4.83;3.25;;;;;;;;;;1731969;82;21048;-65
2022/07/27 00:48:45;;;;;;;5.47;3.25;;;;;;;;;;1738075;82;21505;-65
2022/07/27 00:51:11;;;;;;;4.47;3.00;;;;;;;;;;1736622;82;21096;-66
2022/07/27 00:53:38;;;;;;;3.83;3.20;;;;;;;;;;1738488;82;21053;-66
2022/07/27 00:56:04;;;;;;;4.05;3.35;;;;;;;;;;1717299;81;21684;-67
2022/07/27 00:58:31;;;;;;;3.80;3.37;;;;;;;;;;1721264;82;21588;-66
2022/07/27 01:03:46;;;;;;;4.78;3.27;;;;;;;;;;1733383;78;74109;-64
2022/07/27 01:06:13;;;;;;;4.72;3.08;;;;;;;;;;1735929;82;21080;-67
2022/07/27 01:08:41;;;;;;;5.30;3.20;;;;;;;;;;1747067;82;21115;-65
2022/07/27 01:11:07;;;;;;;4.35;3.65;;;;;;;;;;1744185;81;21045;-66
2022/07/27 01:13:34;;;;;;;4.92;3.12;;;;;;;;;;1734942;81;21622;-65
2022/07/27 01:16:02;;;;;;;4.22;3.25;;;;;;;;;;1742144;81;21040;-65
2022/07/27 01:18:33;;;;;;;6.28;3.33;;;;;;;;;;1743443;81;21060;-65
2022/07/27 01:20:59;;;;;;;4.08;3.27;;;;;;;;;;1744713;81;21039;-65
2022/07/27 01:23:26;;;;;;;4.50;3.33;;;;;;;;;;1738626;81;21231;-65
2022/07/27 01:25:52;;;;;;;5.65;3.75;;;;;;;;;;1744536;81;21067;-65
2022/07/27 01:28:20;;;;;;;5.70;3.27;;;;;;;;;;1717630;82;21165;-65
2022/07/27 01:30:46;;;;;;;5.40;3.60;;;;;;;;;;1743475;82;21603;-64
2022/07/27 01:33:12;;;;;;;5.83;3.25;;;;;;;;;;1743303;81;21117;-65
2022/07/27 01:35:38;;;;;;;3.90;3.12;;;;;;;;;;1743133;81;21062;-65
2022/07/27 01:38:07;;;;;;;4.03;3.30;;;;;;;;;;1743481;81;21078;-65
2022/07/27 01:40:35;;;;;;;4.22;3.30;;;;;;;;;;1743325;81;21449;-65
2022/07/27 01:43:02;;;;;;;4.35;3.12;;;;;;;;;;1743649;82;21221;-65
2022/07/27 01:46:16;;;;;;;4.25;3.20;;;;;;;;;;1815766;78;22724;-66
2022/07/27 01:48:42;;;;;;;3.85;3.20;;;;;;;;;;1792551;79;21025;-66
2022/07/27 01:51:10;;;;;;;4.37;3.83;;;;;;;;;;1792118;80;21047;-66
2022/07/27 01:53:36;;;;;;;6.50;3.58;;;;;;;;;;1795518;79;21078;-66
2022/07/27 01:56:02;;;;;;;5.00;3.15;;;;;;;;;;1782778;79;21037;-65
2022/07/27 01:58:28;;;;;;;4.17;3.40;;;;;;;;;;1792930;80;21063;-65
2022/07/27 02:00:54;;;;;;;4.90;4.08;;;;;;;;;;1792411;80;21567;-65
2022/07/27 02:03:21;;;;;;;4.67;3.72;;;;;;;;;;1780797;79;21624;-65
2022/07/27 02:05:47;;;;;;;4.92;3.75;;;;;;;;;;1763464;80;21072;-65
2022/07/27 02:08:14;;;;;;;4.55;3.55;;;;;;;;;;1760114;80;21067;-65
2022/07/27 02:12:34;;;;;;;5.05;3.45;;;;;;;;;;1760381;81;21562;-65
2022/07/27 02:13:10;;;;;;;4.97;3.62;;;;;;;;;;1738774;80;21115;-65
2022/07/27 02:15:36;;;;;;;5.87;3.70;;;;;;;;;;1746352;80;22054;-66
2022/07/27 02:18:02;;;;;;;4.12;3.62;;;;;;;;;;1741438;81;21555;-66
2022/07/27 02:20:30;;;;;;;5.17;3.30;;;;;;;;;;1760110;80;21544;-66
2022/07/27 02:22:57;;;;;;;4.30;3.45;;;;;;;;;;1761198;81;21052;-65
2022/07/27 02:25:23;;;;;;;3.75;3.05;;;;;;;;;;1761428;80;21490;-65
2022/07/27 02:27:49;;;;;;;5.37;3.40;;;;;;;;;;1777287;81;21158;-65
2022/07/27 02:30:15;;;;;;;5.08;3.77;;;;;;;;;;1760551;80;21047;-65
2022/07/27 02:32:42;;;;;;;4.65;3.58;;;;;;;;;;1756933;81;21586;-65
2022/07/27 02:35:08;;;;;;;4.50;3.30;;;;;;;;;;1745633;80;21252;-65
2022/07/27 02:37:35;;;;;;;4.65;3.92;;;;;;;;;;1759126;80;21547;-65
2022/07/27 02:40:01;;;;;;;4.17;3.72;;;;;;;;;;1761309;81;21064;-66
2022/07/27 02:42:27;;;;;;;4.67;3.77;;;;;;;;;;1740076;80;21107;-66
2022/07/27 02:44:53;;;;;;;3.80;3.20;;;;;;;;;;1738718;81;21066;-66
2022/07/27 02:47:20;;;;;;;5.17;3.58;;;;;;;;;;1731418;82;21611;-66
2022/07/27 02:49:46;;;;;;;4.92;3.33;;;;;;;;;;1724533;82;21548;-66
2022/07/27 02:52:12;;;;;;;6.15;4.00;;;;;;;;;;1729566;82;21072;-66
2022/07/27 02:54:39;;;;;;;4.72;3.92;;;;;;;;;;1730683;81;21045;-66
2022/07/27 02:57:04;;;;;;;3.80;3.40;;;;;;;;;;1742016;81;21022;-66
2022/07/27 02:59:31;;;;;;;4.50;3.45;;;;;;;;;;1722770;82;21093;-66
2022/07/27 03:01:57;;;;;;;5.92;3.58;;;;;;;;;;1731372;82;21508;-65
2022/07/27 03:04:23;;;;;;;29.07;6.10;;;;;;;;;;1739121;81;21112;-65
2022/07/27 03:06:49;;;;;;;37.67;5.78;;;;;;;;;;1742181;81;21030;-66
2022/07/27 03:09:16;;;;;;;19.35;4.30;;;;;;;;;;1728070;82;21072;-65
2022/07/27 03:11:43;;;;;;;11.95;3.83;;;;;;;;;;1738447;82;21734;-65
2022/07/27 03:14:10;;;;;;;6.58;3.80;;;;;;;;;;1729373;81;21059;-65
2022/07/27 03:16:36;;;;;;;8.35;4.10;;;;;;;;;;1739834;81;21080;-65
2022/07/27 03:19:03;;;;;;;8.30;4.25;;;;;;;;;;1731251;82;21076;-65
2022/07/27 03:21:29;;;;;;;5.35;3.70;;;;;;;;;;1729603;82;21060;-66
2022/07/27 03:23:56;;;;;;;5.65;4.12;;;;;;;;;;1729453;83;21053;-65
2022/07/27 03:26:23;;;;;;;4.97;4.12;;;;;;;;;;1731738;81;21033;-65
2022/07/27 03:28:49;;;;;;;6.40;3.85;;;;;;;;;;1729509;83;21084;-65
2022/07/27 03:31:15;;;;;;;4.45;3.75;;;;;;;;;;1729274;82;21084;-65
2022/07/27 03:33:42;;;;;;;7.35;3.98;;;;;;;;;;1729038;82;21115;-65
2022/07/27 03:36:08;;;;;;;7.40;3.92;;;;;;;;;;1741949;81;21183;-64
2022/07/27 03:38:36;;;;;;;5.60;3.80;;;;;;;;;;1713249;82;21171;-65
2022/07/27 03:41:03;;;;;;;5.87;3.98;;;;;;;;;;1721995;83;21326;-65
2022/07/27 03:43:30;;;;;;;5.60;3.77;;;;;;;;;;1734578;82;21100;-65
2022/07/27 03:45:56;;;;;;;5.20;3.75;;;;;;;;;;1739191;81;21136;-65
2022/07/27 03:48:23;;;;;;;4.35;3.77;;;;;;;;;;1742802;82;21065;-65
2022/07/27 03:50:50;;;;;;;4.42;3.50;;;;;;;;;;1740674;81;21110;-65
2022/07/27 03:53:16;;;;;;;5.70;4.25;;;;;;;;;;1746875;82;21170;-64
2022/07/27 03:55:43;;;;;;;4.05;3.40;;;;;;;;;;1748344;81;21116;-64
2022/07/27 03:58:09;;;;;;;4.55;3.37;;;;;;;;;;1743435;81;21014;-64
2022/07/27 04:00:36;;;;;;;4.45;3.72;;;;;;;;;;1747681;82;21140;-64
2022/07/27 04:03:02;;;;;;;74.85;8.03;;;;;;;;;;1745605;81;21119;-64
2022/07/27 04:05:29;;;;;;;16.70;3.92;;;;;;;;;;1749069;81;21033;-65
2022/07/27 04:07:56;;;;;;;17.23;3.90;;;;;;;;;;1749585;81;21036;-64
2022/07/27 04:10:22;;;;;;;4.45;2.92;;;;;;;;;;1742528;81;21108;-66
2022/07/27 04:12:49;;;;;;;9.78;3.77;;;;;;;;;;1739383;81;21040;-66
2022/07/27 04:15:15;;;;;;;5.00;3.33;;;;;;;;;;1729127;81;21102;-64
2022/07/27 04:17:41;;;;;;;14.25;4.75;;;;;;;;;;1756156;81;22088;-64
2022/07/27 04:20:09;;;;;;;6.55;3.87;;;;;;;;;;1750257;81;21060;-65
2022/07/27 04:22:35;;;;;;;4.60;3.00;;;;;;;;;;1746063;82;21065;-64
2022/07/27 04:25:02;;;;;;;4.25;3.05;;;;;;;;;;1720793;82;21058;-64
2022/07/27 04:27:28;;;;;;;3.92;3.50;;;;;;;;;;1747423;81;21495;-65
2022/07/27 04:29:55;;;;;;;3.90;3.17;;;;;;;;;;1728207;81;21049;-65
2022/07/27 04:32:22;;;;;;;7.33;3.47;;;;;;;;;;1717852;81;21041;-65
2022/07/27 04:34:48;;;;;;;4.83;3.50;;;;;;;;;;1746700;82;21120;-65
2022/07/27 04:37:15;;;;;;;6.08;3.42;;;;;;;;;;1761562;81;21029;-65
2022/07/27 04:39:41;;;;;;;5.22;3.27;;;;;;;;;;1745896;81;21623;-65
2022/07/27 04:42:08;;;;;;;4.37;3.55;;;;;;;;;;1742340;81;21013;-65
2022/07/27 04:44:36;;;;;;;5.62;3.62;;;;;;;;;;1719600;81;21715;-64
2022/07/27 04:47:02;;;;;;;3.80;3.15;;;;;;;;;;1766415;81;21029;-64
2022/07/27 04:49:28;;;;;;;4.47;3.15;;;;;;;;;;1769196;81;21104;-64
2022/07/27 04:51:54;;;;;;;5.95;3.27;;;;;;;;;;1769080;81;21049;-63
2022/07/27 04:54:21;;;;;;;3.85;2.87;;;;;;;;;;1769112;81;21135;-66
2022/07/27 04:56:48;;;;;;;5.78;3.02;;;;;;;;;;1768700;81;21061;-66
2022/07/27 04:59:14;;;;;;;3.75;2.62;;;;;;;;;;1768787;81;21041;-65
2022/07/27 05:01:40;;;;;;;4.40;3.15;;;;;;;;;;1769248;81;21005;-65
2022/07/27 05:04:06;;;;;;;4.33;2.83;;;;;;;;;;1768404;81;21655;-65
2022/07/27 05:06:33;;;;;;;3.67;2.87;;;;;;;;;;1762059;81;21157;-65
2022/07/27 05:08:59;;;;;;;7.85;3.25;;;;;;;;;;1756444;81;21128;-65
2022/07/27 05:11:26;;;;;;;4.80;3.05;;;;;;;;;;1755905;81;21005;-66
2022/07/27 05:13:52;;;;;;;8.78;3.40;;;;;;;;;;1755554;81;21061;-65
2022/07/27 05:16:18;;;;;;;7.15;3.00;;;;;;;;;;1760046;81;21092;-66
2022/07/27 05:18:46;;;;;;;17.65;3.55;;;;;;;;;;1746576;81;21299;-66
2022/07/27 05:21:13;;;;;;;6.05;2.85;;;;;;;;;;1759369;81;21014;-66
2022/07/27 05:23:39;;;;;;;6.42;3.30;;;;;;;;;;1752661;81;21060;-65
2022/07/27 05:26:07;;;;;;;4.72;3.17;;;;;;;;;;1753837;81;21080;-66
2022/07/27 05:28:34;;;;;;;4.33;2.80;;;;;;;;;;1768466;81;21060;-67
2022/07/27 05:31:01;;;;;;;3.75;2.50;;;;;;;;;;1768797;81;21097;-65
2022/07/27 05:33:29;;;;;;;5.20;2.80;;;;;;;;;;1768470;81;21088;-66
2022/07/27 05:35:56;;;;;;;9.08;3.00;;;;;;;;;;1751989;81;21321;-65
2022/07/27 05:38:22;;;;;;;4.75;2.90;;;;;;;;;;1745699;81;21057;-66
2022/07/27 05:40:48;;;;;;;3.98;2.58;;;;;;;;;;1756921;81;21091;-66
2022/07/27 05:43:15;;;;;;;3.40;2.60;;;;;;;;;;1754298;82;21041;-65
2022/07/27 05:45:41;;;;;;;3.12;2.50;;;;;;;;;;1752738;80;21673;-65
2022/07/27 05:48:07;;;;;;;2.92;2.50;;;;;;;;;;1751658;81;21025;-65
2022/07/27 05:50:34;;;;;;;4.80;2.70;;;;;;;;;;1747078;81;21017;-64
2022/07/27 05:53:00;;;;;;;3.58;2.67;;;;;;;;;;1759557;81;21032;-64
2022/07/27 05:55:26;;;;;;;3.72;2.50;;;;;;;;;;1735689;81;21559;-64
2022/07/27 05:57:52;;;;;;;3.33;2.50;;;;;;;;;;1752084;81;21587;-65
2022/07/27 06:00:18;;;;;;;4.62;2.50;;;;;;;;;;1755114;80;21040;-65
2022/07/27 06:02:44;;;;;;;3.67;2.40;;;;;;;;;;1748955;80;21060;-65
2022/07/27 06:05:10;;;;;;;3.77;2.42;;;;;;;;;;1750823;80;21072;-65
2022/07/27 06:10:22;;;;;;;3.50;2.58;;;;;;;;;;1757777;81;21049;-66
2022/07/27 06:12:50;;;;;;;6.42;2.22;;;;;;;;;;1745879;80;21092;-64
2022/07/27 06:15:18;;;;;;;2.95;2.37;;;;;;;;;;1753656;81;21064;-64
2022/07/27 06:17:47;;;;;;;2.52;2.10;;;;;;;;;;1754620;80;21016;-65
2022/07/27 06:20:15;;;;;;;6.58;2.60;;;;;;;;;;1763608;80;21096;-66
2022/07/27 06:22:46;;;;;;;3.85;2.20;;;;;;;;;;1770226;81;21092;-66
2022/07/27 06:25:12;;;;;;;7.75;2.40;;;;;;;;;;1747115;81;21068;-65
2022/07/27 06:27:40;;;;;;;3.90;2.33;;;;;;;;;;1754426;81;21008;-66
2022/07/27 06:30:07;;;;;;;2.40;2.20;;;;;;;;;;1750396;81;21547;-67
2022/07/27 06:32:33;;;;;;;2.58;2.27;;;;;;;;;;1763652;81;21061;-67
2022/07/27 06:35:00;;;;;;;15.58;3.10;;;;;;;;;;1755747;81;21541;-65
2022/07/27 06:37:28;;;;;;;3.40;2.40;;;;;;;;;;1752007;81;21053;-67
2022/07/27 06:39:54;;;;;;;3.90;2.33;;;;;;;;;;1766442;81;21057;-66
2022/07/27 06:42:22;;;;;;;8.45;2.33;;;;;;;;;;1754148;82;21028;-66
2022/07/27 06:44:48;;;;;;;6.67;2.80;;;;;;;;;;1744546;80;21606;-66
2022/07/27 06:47:15;;;;;;;2.67;2.12;;;;;;;;;;1750146;81;21017;-67
2022/07/27 06:49:41;;;;;;;4.90;2.27;;;;;;;;;;1756504;81;21584;-66
2022/07/27 06:52:07;;;;;;;3.90;2.30;;;;;;;;;;1741784;81;21044;-65
2022/07/27 06:54:33;;;;;;;3.60;2.37;;;;;;;;;;1750805;81;21001;-65
2022/07/27 06:57:01;;;;;;;3.80;2.35;;;;;;;;;;1748387;81;21568;-66
2022/07/27 06:59:28;;;;;;;6.20;2.42;;;;;;;;;;1748207;81;22150;-65
2022/07/27 07:01:54;;;;;;;12.68;2.72;;;;;;;;;;1747384;81;21033;-65
2022/07/27 07:04:20;;;;;;;3.62;2.60;;;;;;;;;;1752778;82;21011;-65
2022/07/27 07:06:47;;;;;;;4.35;2.80;;;;;;;;;;1754953;81;21041;-66
2022/07/27 07:09:14;;;;;;;2.60;2.15;;;;;;;;;;1737718;81;21024;-64
2022/07/27 07:11:41;;;;;;;4.55;2.35;;;;;;;;;;1736287;81;21064;-65
2022/07/27 07:14:09;;;;;;;2.90;2.60;;;;;;;;;;1746370;81;21086;-66
2022/07/27 07:16:36;;;;;;;4.28;2.87;;;;;;;;;;1742864;81;21096;-65
2022/07/27 07:19:04;;;;;;;9.10;3.20;;;;;;;;;;1744254;81;21041;-65
2022/07/27 07:21:31;;;;;;;3.15;2.22;;;;;;;;;;1744260;81;20989;-65
2022/07/27 07:23:57;;;;;;;3.92;2.62;;;;;;;;;;1743680;81;21013;-64
2022/07/27 07:26:24;;;;;;;5.35;2.75;;;;;;;;;;1696461;82;21113;-65
2022/07/27 07:28:50;;;;;;;3.52;2.50;;;;;;;;;;1737687;81;21043;-66
2022/07/27 07:31:19;;;;;;;3.60;2.67;;;;;;;;;;1739845;81;21064;-66
2022/07/27 07:33:45;;;;;;;4.08;2.77;;;;;;;;;;1740689;81;21073;-66
2022/07/27 07:36:11;;;;;;;3.80;2.83;;;;;;;;;;1739405;81;21044;-65
2022/07/27 07:38:38;;;;;;;6.42;2.95;;;;;;;;;;1736263;81;21127;-65
2022/07/27 07:41:04;;;;;;;4.35;2.42;;;;;;;;;;1742184;81;22243;-66
2022/07/27 07:43:30;;;;;;;3.60;2.40;;;;;;;;;;1741064;81;21667;-65
2022/07/27 07:45:56;;;;;;;5.45;2.60;;;;;;;;;;1743293;80;22344;-65
2022/07/27 07:48:23;;;;;;;3.05;2.45;;;;;;;;;;1714712;82;21084;-63
2022/07/27 07:50:49;;;;;;;7.95;2.90;;;;;;;;;;1679725;83;21033;-65
2022/07/27 07:53:16;;;;;;;10.80;3.17;;;;;;;;;;1748648;80;21104;-67
2022/07/27 07:55:42;;;;;;;4.75;2.70;;;;;;;;;;1754258;81;21004;-68
2022/07/27 07:58:09;;;;;;;3.10;2.33;;;;;;;;;;1752237;80;21108;-68
2022/07/27 08:00:36;;;;;;;5.87;2.60;;;;;;;;;;1750961;80;21646;-67
2022/07/27 08:03:03;;;;;;;4.33;2.77;;;;;;;;;;1752556;80;21127;-66
2022/07/27 08:05:30;;;;;;;3.47;2.75;;;;;;;;;;1751063;80;21443;-66
2022/07/27 08:07:57;;;;;;;4.05;2.50;;;;;;;;;;1754109;81;21044;-66
2022/07/27 08:10:24;;;;;;;5.75;2.62;;;;;;;;;;1752159;81;21059;-67
2022/07/27 08:12:51;;;;;;;3.05;2.52;;;;;;;;;;1755287;80;21551;-68
2022/07/27 08:15:19;;;;;;;12.18;10.85;;;;;;;;;;1763571;81;21064;-69
2022/07/27 08:17:46;;;;;;;41.60;37.17;;;;;;;;;;1740350;80;21108;-69
2022/07/27 08:20:13;;;;;;;5.90;4.42;;;;;;;;;;1743707;81;21103;-66
2022/07/27 08:22:40;;;;;;;4.47;3.33;;;;;;;;;;1753002;80;21096;-66
2022/07/27 08:25:07;;;;;;;3.00;2.60;;;;;;;;;;1759366;80;21021;-66
2022/07/27 08:27:34;;;;;;;3.92;2.62;;;;;;;;;;1751601;82;21541;-66
2022/07/27 08:30:00;;;;;;;7.80;2.92;;;;;;;;;;1750007;80;21181;-65
2022/07/27 08:32:27;;;;;;;3.05;2.47;;;;;;;;;;1753445;80;21056;-66
2022/07/27 08:34:54;;;;;;;4.78;2.70;;;;;;;;;;1753952;81;21044;-66
2022/07/27 08:37:20;;;;;;;3.98;2.62;;;;;;;;;;1764274;80;21012;-66
2022/07/27 08:39:46;;;;;;;7.33;2.72;;;;;;;;;;1770548;81;21056;-67
2022/07/27 08:42:12;;;;;;;3.85;2.30;;;;;;;;;;1750299;80;21028;-67
2022/07/27 08:44:39;;;;;;;5.28;2.60;;;;;;;;;;1751154;80;21132;-67
2022/07/27 08:47:09;;;;;;;2.90;2.33;;;;;;;;;;1747791;82;21119;-67
2022/07/27 08:49:38;;;;;;;4.70;2.95;;;;;;;;;;1749061;80;21049;-67
2022/07/27 08:52:04;;;;;;;4.65;2.37;;;;;;;;;;1756378;80;21546;-67
2022/07/27 08:54:30;;;;;;;3.85;2.17;;;;;;;;;;1741317;81;20996;-66
2022/07/27 08:56:56;;;;;;;2.67;2.47;;;;;;;;;;1745407;80;21001;-65
2022/07/27 08:59:23;;;;;;;3.87;2.50;;;;;;;;;;1749080;81;21053;-65
2022/07/27 09:01:49;;;;;;;4.22;2.67;;;;;;;;;;1745593;81;21285;-66
2022/07/27 09:04:15;;;;;;;4.40;2.83;;;;;;;;;;1751230;80;21049;-67
2022/07/27 09:06:43;;;;;;;3.25;2.47;;;;;;;;;;1752048;80;22163;-67
2022/07/27 09:09:09;;;;;;;5.05;2.70;;;;;;;;;;1752137;81;20993;-67
2022/07/27 09:11:36;;;;;;;3.02;2.22;;;;;;;;;;1760182;81;21020;-65
2022/07/27 09:14:03;;;;;;;32.20;28.85;;;;;;;;;;1752986;81;21075;-69
2022/07/27 09:16:30;;;;;;;36.20;30.32;;;;;;;;;;1719465;82;21072;-67
2022/07/27 09:18:58;;;;;;;13.03;10.88;;;;;;;;;;1735894;82;21097;-70
2022/07/27 09:21:25;;;;;;;46.88;42.25;;;;;;;;;;1721285;82;21239;-69
2022/07/27 09:23:56;;;;;;;5.87;5.22;;;;;;;;;;1695647;82;21625;-67
2022/07/27 09:26:26;;;;;;;4.62;3.15;;;;;;;;;;1678444;85;21120;-67
2022/07/27 09:28:52;;;;;;;3.25;2.45;;;;;;;;;;1681627;85;22137;-68
2022/07/27 09:31:19;;;;;;;2.30;2.10;;;;;;;;;;1675991;83;21121;-67
2022/07/27 09:33:46;;;;;;;3.58;2.60;;;;;;;;;;1754529;81;21017;-67
2022/07/27 09:36:14;;;;;;;3.47;2.33;;;;;;;;;;1754232;81;21132;-67
2022/07/27 09:39:05;;;;;;;3.42;2.33;;;;;;;;;;1755297;81;21052;-68
2022/07/27 09:41:41;;;;;;;4.20;2.35;;;;;;;;;;1737385;80;21528;-69
2022/07/27 09:44:09;;;;;;;2.80;2.47;;;;;;;;;;1754158;80;21092;-68
2022/07/27 09:46:36;;;;;;;3.98;2.55;;;;;;;;;;1749980;80;21029;-68
2022/07/27 09:49:03;;;;;;;3.83;2.37;;;;;;;;;;1736925;81;21093;-67
2022/07/27 09:51:30;;;;;;;3.55;2.60;;;;;;;;;;1736503;82;21061;-68
2022/07/27 09:53:57;;;;;;;4.00;2.37;;;;;;;;;;1746962;80;21044;-68
2022/07/27 09:56:25;;;;;;;3.37;2.45;;;;;;;;;;1770965;80;21072;-67
2022/07/27 09:58:55;;;;;;;3.47;2.52;;;;;;;;;;1783238;80;21539;-67
2022/07/27 10:01:31;;;;;;;5.85;2.42;;;;;;;;;;1752107;80;21103;-68
2022/07/27 10:04:00;;;;;;;4.05;2.67;;;;;;;;;;1731042;80;21045;-68
2022/07/27 10:06:27;;;;;;;4.83;2.47;;;;;;;;;;1728582;82;21088;-68
2022/07/27 10:08:54;;;;;;;3.95;2.37;;;;;;;;;;1736786;82;21089;-68
2022/07/27 10:11:20;;;;;;;3.58;2.17;;;;;;;;;;1743889;81;21146;-68
2022/07/27 10:13:47;;;;;;;6.78;2.70;;;;;;;;;;1746489;81;21088;-67
2022/07/27 10:16:16;;;;;;;3.37;2.30;;;;;;;;;;1736140;82;21052;-69
2022/07/27 10:18:59;;;;;;;6.17;2.70;;;;;;;;;;1741620;82;21374;-69
2022/07/27 10:21:26;;;;;;;4.40;2.50;;;;;;;;;;1745985;81;21056;-67
2022/07/27 10:23:54;;;;;;;5.45;2.33;;;;;;;;;;1746019;82;21053;-67
2022/07/27 10:26:25;;;;;;;2.87;2.40;;;;;;;;;;1745883;82;21084;-67
2022/07/27 10:28:52;;;;;;;4.10;2.37;;;;;;;;;;1757169;81;21033;-67
2022/07/27 10:31:21;;;;;;;2.27;2.08;;;;;;;;;;1756165;81;20988;-69
2022/07/27 10:33:48;;;;;;;3.20;2.37;;;;;;;;;;1747755;81;21056;-69
2022/07/27 10:36:19;;;;;;;2.58;2.10;;;;;;;;;;1737415;81;21539;-70
2022/07/27 10:38:47;;;;;;;2.83;2.20;;;;;;;;;;1747460;81;21098;-66
2022/07/27 10:41:20;;;;;;;6.55;2.72;;;;;;;;;;1748117;82;21053;-65
2022/07/27 10:43:49;;;;;;;7.42;2.00;;;;;;;;;;1748054;81;21064;-66
2022/07/27 10:46:20;;;;;;;9.63;8.20;;;;;;;;;;1747883;82;21612;-66
2022/07/27 10:48:46;;;;;;;27.87;23.87;;;;;;;;;;1746992;81;20984;-67
2022/07/27 10:51:14;;;;;;;45.98;39.85;;;;;;;;;;1743355;81;21056;-66
2022/07/27 10:53:41;;;;;;;7.10;4.50;;;;;;;;;;1745738;81;21064;-68
2022/07/27 10:56:08;;;;;;;3.65;2.85;;;;;;;;;;1706084;83;21607;-69
2022/07/27 10:58:37;;;;;;;5.00;2.62;;;;;;;;;;1740489;81;21074;-68
2022/07/27 11:01:04;;;;;;;3.58;2.10;;;;;;;;;;1739401;81;21124;-68
2022/07/27 11:03:34;;;;;;;2.72;2.22;;;;;;;;;;1739939;81;21512;-67
2022/07/27 11:06:15;;;;;;;12.28;2.70;;;;;;;;;;1747150;80;21532;-66
2022/07/27 11:08:41;;;;;;;10.23;2.70;;;;;;;;;;1747779;81;21091;-67
2022/07/27 11:11:08;;;;;;;3.58;2.30;;;;;;;;;;1746054;80;21068;-67
2022/07/27 11:13:34;;;;;;;7.87;2.60;;;;;;;;;;1745075;81;21041;-66
2022/07/27 11:16:03;;;;;;;10.00;2.40;;;;;;;;;;1744837;81;21005;-66
2022/07/27 11:18:30;;;;;;;4.40;1.95;;;;;;;;;;1746435;81;21036;-65
2022/07/27 11:21:14;;;;;;;3.20;2.20;;;;;;;;;;1746732;81;21624;-67
2022/07/27 11:23:43;;;;;;;3.22;2.10;;;;;;;;;;1741878;81;21017;-66
2022/07/27 11:26:10;;;;;;;12.65;9.58;;;;;;;;;;1747896;81;21545;-71
2022/07/27 11:28:37;;;;;;;33.95;30.30;;;;;;;;;;1745509;81;20985;-70
2022/07/27 11:31:04;;;;;;;38.40;34.27;;;;;;;;;;1747886;81;21088;-72
2022/07/27 11:33:30;;;;;;;7.28;5.22;;;;;;;;;;1744618;81;21112;-66
2022/07/27 11:35:57;;;;;;;10.68;4.78;;;;;;;;;;1742640;80;22523;-67
2022/07/27 11:38:23;;;;;;;7.25;3.47;;;;;;;;;;1742977;80;21001;-66
2022/07/27 11:40:51;;;;;;;5.92;2.42;;;;;;;;;;1732157;81;21052;-67
2022/07/27 11:43:31;;;;;;;6.97;2.65;;;;;;;;;;1745280;81;21085;-66
2022/07/27 11:45:59;;;;;;;5.62;2.40;;;;;;;;;;1687040;84;20988;-66
2022/07/27 11:48:25;;;;;;;7.90;2.37;;;;;;;;;;1727166;81;21074;-66
2022/07/27 11:50:58;;;;;;;7.35;2.80;;;;;;;;;;1719284;82;21013;-66
2022/07/27 11:53:24;;;;;;;3.25;2.35;;;;;;;;;;1716669;82;21010;-66
2022/07/27 11:55:50;;;;;;;5.10;2.50;;;;;;;;;;1698161;82;21055;-67
2022/07/27 11:58:17;;;;;;;7.85;2.35;;;;;;;;;;1740015;82;21061;-66
2022/07/27 12:00:47;;;;;;;5.20;2.40;;;;;;;;;;1737092;82;21050;-66
2022/07/27 12:03:19;;;;;;;3.20;2.02;;;;;;;;;;1733851;82;21054;-66
2022/07/27 12:05:49;;;;;;;2.80;2.00;;;;;;;;;;1695463;82;21109;-66
2022/07/27 12:08:16;;;;;;;8.43;2.85;;;;;;;;;;1679268;84;21073;-66
2022/07/27 12:10:58;;;;;;;4.92;2.47;;;;;;;;;;1732315;82;21064;-66
2022/07/27 12:13:32;;;;;;;3.30;2.45;;;;;;;;;;1719296;82;21544;-66
2022/07/27 12:15:58;;;;;;;4.17;2.50;;;;;;;;;;1724763;82;21077;-67
2022/07/27 12:18:24;;;;;;;5.47;2.52;;;;;;;;;;1737090;82;21065;-67
2022/07/27 12:20:50;;;;;;;4.47;2.60;;;;;;;;;;1737048;82;21112;-67
2022/07/27 12:23:18;;;;;;;11.70;2.95;;;;;;;;;;1703280;82;21476;-66
2022/07/27 12:25:44;;;;;;;6.58;2.90;;;;;;;;;;1718705;82;21044;-66
2022/07/27 12:28:12;;;;;;;8.90;2.72;;;;;;;;;;1714650;82;21073;-66
2022/07/27 12:30:41;;;;;;;5.58;2.80;;;;;;;;;;1723174;82;21092;-64
2022/07/27 12:33:09;;;;;;;36.65;30.08;;;;;;;;;;1721432;82;21549;-65
2022/07/27 12:35:45;;;;;;;44.20;39.63;;;;;;;;;;1703220;82;21067;-66
2022/07/27 12:38:11;;;;;;;7.00;3.60;;;;;;;;;;1705185;82;21021;-64
2022/07/27 12:40:47;;;;;;;4.62;3.10;;;;;;;;;;1716584;82;21018;-65
2022/07/27 12:43:15;;;;;;;5.67;2.80;;;;;;;;;;1708538;82;21124;-64
2022/07/27 12:45:41;;;;;;;5.03;2.37;;;;;;;;;;1702860;82;21092;-65
2022/07/27 12:48:13;;;;;;;3.90;2.50;;;;;;;;;;1718303;80;21032;-64
2022/07/27 12:50:40;;;;;;;2.72;2.15;;;;;;;;;;1758092;80;21122;-65
2022/07/27 12:53:07;;;;;;;4.75;2.47;;;;;;;;;;1760949;80;22223;-65
2022/07/27 12:55:33;;;;;;;5.67;2.47;;;;;;;;;;1755770;80;20989;-65
2022/07/27 12:57:59;;;;;;;3.42;2.50;;;;;;;;;;1767323;80;21418;-65
2022/07/27 13:00:28;;;;;;;6.90;2.98;;;;;;;;;;1760255;80;21006;-66
2022/07/27 13:02:54;;;;;;;8.05;2.80;;;;;;;;;;1758486;80;21019;-65
2022/07/27 13:05:20;;;;;;;6.70;2.90;;;;;;;;;;1751185;80;21196;-64
2022/07/27 13:07:46;;;;;;;7.50;2.55;;;;;;;;;;1752980;80;21059;-65
2022/07/27 13:10:14;;;;;;;5.58;2.80;;;;;;;;;;1761283;80;21056;-67
2022/07/27 13:12:40;;;;;;;4.33;2.50;;;;;;;;;;1760123;80;21127;-67
2022/07/27 13:15:07;;;;;;;6.62;2.60;;;;;;;;;;1755037;80;21051;-68
2022/07/27 13:17:34;;;;;;;6.12;2.47;;;;;;;;;;1720362;82;21035;-67
2022/07/27 13:20:01;;;;;;;3.47;2.30;;;;;;;;;;1693072;83;21234;-67
2022/07/27 13:22:28;;;;;;;4.78;2.22;;;;;;;;;;1722082;82;21042;-68
2022/07/27 13:24:55;;;;;;;5.20;2.33;;;;;;;;;;1719023;82;21515;-67
2022/07/27 13:27:21;;;;;;;6.42;2.60;;;;;;;;;;1716405;82;21056;-67
2022/07/27 13:29:47;;;;;;;4.58;2.70;;;;;;;;;;1715409;82;21021;-67
2022/07/27 13:32:13;;;;;;;4.17;2.40;;;;;;;;;;1683824;83;21056;-67
2022/07/27 13:34:39;;;;;;;4.55;2.45;;;;;;;;;;1706273;82;21033;-67
2022/07/27 13:37:05;;;;;;;7.85;2.90;;;;;;;;;;1726525;82;21048;-66
2022/07/27 13:39:31;;;;;;;7.47;3.20;;;;;;;;;;1729219;82;20971;-66
2022/07/27 13:41:57;;;;;;;6.50;2.52;;;;;;;;;;1713412;82;21638;-67
2022/07/27 13:44:24;;;;;;;3.50;2.50;;;;;;;;;;1732419;82;21121;-67
2022/07/27 13:46:50;;;;;;;5.15;2.70;;;;;;;;;;1718378;82;21064;-66
2022/07/27 13:49:17;;;;;;;10.72;3.17;;;;;;;;;;1712405;82;21623;-66
2022/07/27 13:51:44;;;;;;;8.40;3.10;;;;;;;;;;1709880;82;21517;-68
2022/07/27 13:54:10;;;;;;;5.30;2.90;;;;;;;;;;1706296;84;21009;-67
2022/07/27 13:56:36;;;;;;;7.00;3.00;;;;;;;;;;1697338;82;21070;-67
2022/07/27 13:59:03;;;;;;;5.50;3.00;;;;;;;;;;1705834;82;21015;-67
2022/07/27 14:03:43;;;;;;;5.03;3.22;;;;;;;;;;1808812;79;23725;-66
2022/07/27 14:06:09;;;;;;;5.95;2.83;;;;;;;;;;1783094;80;21523;-66
2022/07/27 14:08:36;;;;;;;6.22;3.00;;;;;;;;;;1789404;80;21062;-66
2022/07/27 14:11:02;;;;;;;5.05;2.87;;;;;;;;;;1783783;79;20957;-66
2022/07/27 14:13:31;;;;;;;6.92;2.95;;;;;;;;;;1793377;78;21028;-67
2022/07/27 14:15:57;;;;;;;4.45;3.27;;;;;;;;;;1771241;80;21069;-66
2022/07/27 14:18:23;;;;;;;4.75;2.98;;;;;;;;;;1771175;78;21024;-66
2022/07/27 14:20:50;;;;;;;5.47;2.90;;;;;;;;;;1789391;80;21083;-66
2022/07/27 14:23:16;;;;;;;4.30;2.87;;;;;;;;;;1783744;80;21045;-67
2022/07/27 14:25:43;;;;;;;4.72;2.98;;;;;;;;;;1775849;78;21039;-66
2022/07/27 14:28:08;;;;;;;6.67;3.60;;;;;;;;;;1789499;80;21541;-64
2022/07/27 14:30:35;;;;;;;8.50;3.12;;;;;;;;;;1795063;80;21056;-65
2022/07/27 14:33:01;;;;;;;6.87;3.30;;;;;;;;;;1764569;80;21060;-66
2022/07/27 14:35:28;;;;;;;6.83;3.20;;;;;;;;;;1779777;78;21032;-68
2022/07/27 14:37:54;;;;;;;22.05;17.10;;;;;;;;;;1783335;79;21046;-67
2022/07/27 14:40:20;;;;;;;57.20;47.98;;;;;;;;;;1785583;78;21076;-67
2022/07/27 14:42:49;;;;;;;10.58;7.15;;;;;;;;;;1764331;80;21629;-67
2022/07/27 14:45:16;;;;;;;7.65;4.30;;;;;;;;;;1757335;80;20998;-68
2022/07/27 14:47:42;;;;;;;4.20;3.47;;;;;;;;;;1745194;81;21023;-65
2022/07/27 14:50:09;;;;;;;5.47;3.40;;;;;;;;;;1749751;80;22337;-66